sensor_id;sensor_type;location;lat;lon;timestamp;P1;durP1;ratioP1;P2;durP2;ratioP2
13319;SDS011;59599;47.608;12.190;2023-04-25T04:02:06;1.73;;;1.57;;
13319;SDS011;59599;47.608;12.190;2023-04-25T04:04:32;4.23;;;1.80;;
13319;SDS011;59599;47.608;12.190;2023-04-25T04:06:58;2.00;;;1.60;;
13319;SDS011;59599;47.608;12.190;2023-04-25T04:09:24;3.60;;;1.73;;
13319;SDS011;59599;47.608;12.190;2023-04-25T04:11:51;2.77;;;1.53;;
13319;SDS011;59599;47.608;12.190;2023-04-25T04:14:16;2.67;;;1.80;;
13319;SDS011;59599;47.608;12.190;2023-04-25T04:16:42;2.53;;;1.90;;
13319;SDS011;59599;47.608;12.190;2023-04-25T04:19:08;1.93;;;1.60;;
13319;SDS011;59599;47.608;12.190;2023-04-25T04:21:34;4.03;;;2.13;;
13319;SDS011;59599;47.608;12.190;2023-04-25T04:24:00;2.10;;;1.90;;
13319;SDS011;59599;47.608;12.190;2023-04-25T04:26:26;2.53;;;2.17;;
13319;SDS011;59599;47.608;12.190;2023-04-25T04:28:51;2.73;;;2.00;;
13319;SDS011;59599;47.608;12.190;2023-04-25T04:31:19;1.97;;;1.80;;
13319;SDS011;59599;47.608;12.190;2023-04-25T04:33:45;2.63;;;1.90;;
13319;SDS011;59599;47.608;12.190;2023-04-25T04:36:11;2.77;;;2.10;;
13319;SDS011;59599;47.608;12.190;2023-04-25T04:38:37;2.50;;;2.10;;
13319;SDS011;59599;47.608;12.190;2023-04-25T04:41:02;3.23;;;2.67;;
13319;SDS011;59599;47.608;12.190;2023-04-25T04:43:28;3.07;;;2.10;;
13319;SDS011;59599;47.608;12.190;2023-04-25T04:45:54;2.23;;;1.93;;
13319;SDS011;59599;47.608;12.190;2023-04-25T04:48:21;3.17;;;2.03;;
13319;SDS011;59599;47.608;12.190;2023-04-25T04:50:47;3.53;;;2.27;;
13319;SDS011;59599;47.608;12.190;2023-04-25T04:53:13;3.30;;;2.73;;
13319;SDS011;59599;47.608;12.190;2023-04-25T04:55:38;2.97;;;2.20;;
13319;SDS011;59599;47.608;12.190;2023-04-25T04:58:06;3.30;;;2.30;;
13319;SDS011;59599;47.608;12.190;2023-04-25T05:00:31;4.83;;;2.60;;
13319;SDS011;59599;47.608;12.190;2023-04-25T05:02:58;2.40;;;2.20;;
13319;SDS011;59599;47.608;12.190;2023-04-25T05:05:23;3.30;;;2.53;;
13319;SDS011;59599;47.608;12.190;2023-04-25T05:07:49;3.30;;;2.67;;
13319;SDS011;59599;47.608;12.190;2023-04-25T05:10:14;3.13;;;2.50;;
13319;SDS011;59599;47.608;12.190;2023-04-25T05:12:40;3.03;;;2.47;;
13319;SDS011;59599;47.608;12.190;2023-04-25T05:15:06;5.20;;;2.93;;
13319;SDS011;59599;47.608;12.190;2023-04-25T05:17:32;5.30;;;2.50;;
13319;SDS011;59599;47.608;12.190;2023-04-25T05:19:57;3.57;;;2.80;;
13319;SDS011;59599;47.608;12.190;2023-04-25T05:22:23;2.90;;;2.37;;
13319;SDS011;59599;47.608;12.190;2023-04-25T05:24:49;4.97;;;2.10;;
13319;SDS011;59599;47.608;12.190;2023-04-25T05:27:16;2.50;;;2.30;;
13319;SDS011;59599;47.608;12.190;2023-04-25T05:29:43;2.50;;;2.23;;
13319;SDS011;59599;47.608;12.190;2023-04-25T05:32:09;3.57;;;2.00;;
13319;SDS011;59599;47.608;12.190;2023-04-25T05:34:36;3.20;;;2.90;;
13319;SDS011;59599;47.608;12.190;2023-04-25T05:37:01;4.87;;;3.50;;
13319;SDS011;59599;47.608;12.190;2023-04-25T05:39:27;5.90;;;4.20;;
13319;SDS011;59599;47.608;12.190;2023-04-25T05:41:53;3.53;;;2.67;;
13319;SDS011;59599;47.608;12.190;2023-04-25T05:44:19;9.50;;;4.00;;
13319;SDS011;59599;47.608;12.190;2023-04-25T05:46:45;7.43;;;4.53;;
13319;SDS011;59599;47.608;12.190;2023-04-25T05:49:12;6.30;;;3.97;;
13319;SDS011;59599;47.608;12.190;2023-04-25T05:51:37;3.20;;;2.90;;
13319;SDS011;59599;47.608;12.190;2023-04-25T05:54:03;3.70;;;2.80;;
13319;SDS011;59599;47.608;12.190;2023-04-25T05:56:29;5.03;;;2.60;;
13319;SDS011;59599;47.608;12.190;2023-04-25T05:58:55;5.57;;;2.20;;
13319;SDS011;59599;47.608;12.190;2023-04-25T06:01:21;3.27;;;2.10;;
13319;SDS011;59599;47.608;12.190;2023-04-25T06:03:47;2.70;;;2.40;;
13319;SDS011;59599;47.608;12.190;2023-04-25T06:06:13;3.37;;;2.17;;
13319;SDS011;59599;47.608;12.190;2023-04-25T06:08:39;2.57;;;2.30;;
13319;SDS011;59599;47.608;12.190;2023-04-25T06:11:05;3.07;;;2.40;;
13319;SDS011;59599;47.608;12.190;2023-04-25T06:13:31;3.00;;;2.33;;
13319;SDS011;59599;47.608;12.190;2023-04-25T06:15:57;3.93;;;2.43;;
13319;SDS011;59599;47.608;12.190;2023-04-25T06:18:22;4.63;;;2.37;;
13319;SDS011;59599;47.608;12.190;2023-04-25T06:20:48;3.17;;;1.90;;
13319;SDS011;59599;47.608;12.190;2023-04-25T06:23:14;6.53;;;2.07;;
13319;SDS011;59599;47.608;12.190;2023-04-25T06:25:40;3.43;;;1.80;;
13319;SDS011;59599;47.608;12.190;2023-04-25T06:28:06;4.43;;;2.13;;
13319;SDS011;59599;47.608;12.190;2023-04-25T06:30:32;2.60;;;1.90;;
13319;SDS011;59599;47.608;12.190;2023-04-25T06:32:57;5.80;;;3.00;;
13319;SDS011;59599;47.608;12.190;2023-04-25T06:35:23;5.23;;;2.13;;
13319;SDS011;59599;47.608;12.190;2023-04-25T06:37:48;2.23;;;1.80;;
13319;SDS011;59599;47.608;12.190;2023-04-25T06:40:14;3.93;;;2.00;;
13319;SDS011;59599;47.608;12.190;2023-04-25T06:42:42;1.83;;;1.70;;
13319;SDS011;59599;47.608;12.190;2023-04-25T06:45:08;4.53;;;1.70;;
13319;SDS011;59599;47.608;12.190;2023-04-25T06:47:33;2.27;;;1.87;;
13319;SDS011;59599;47.608;12.190;2023-04-25T06:49:59;2.43;;;2.00;;
13319;SDS011;59599;47.608;12.190;2023-04-25T06:52:25;3.80;;;2.50;;
13319;SDS011;59599;47.608;12.190;2023-04-25T06:54:51;3.60;;;2.57;;
13319;SDS011;59599;47.608;12.190;2023-04-25T06:57:17;3.50;;;2.37;;
13319;SDS011;59599;47.608;12.190;2023-04-25T06:59:42;2.17;;;1.97;;
13319;SDS011;59599;47.608;12.190;2023-04-25T07:02:08;5.93;;;2.20;;
13319;SDS011;59599;47.608;12.190;2023-04-25T07:04:34;2.23;;;2.00;;
13319;SDS011;59599;47.608;12.190;2023-04-25T07:06:59;2.70;;;2.00;;
13319;SDS011;59599;47.608;12.190;2023-04-25T07:09:27;2.90;;;1.80;;
13319;SDS011;59599;47.608;12.190;2023-04-25T07:11:53;2.70;;;2.17;;
13319;SDS011;59599;47.608;12.190;2023-04-25T07:14:19;6.17;;;2.50;;
13319;SDS011;59599;47.608;12.190;2023-04-25T07:16:45;3.33;;;1.80;;
13319;SDS011;59599;47.608;12.190;2023-04-25T07:19:10;3.83;;;1.97;;
13319;SDS011;59599;47.608;12.190;2023-04-25T07:21:36;2.40;;;2.20;;
13319;SDS011;59599;47.608;12.190;2023-04-25T07:24:02;2.70;;;2.10;;
13319;SDS011;59599;47.608;12.190;2023-04-25T07:26:28;2.03;;;1.63;;
13319;SDS011;59599;47.608;12.190;2023-04-25T07:28:54;5.83;;;2.43;;
13319;SDS011;59599;47.608;12.190;2023-04-25T07:31:19;2.23;;;1.90;;
13319;SDS011;59599;47.608;12.190;2023-04-25T07:33:46;5.00;;;2.97;;
13319;SDS011;59599;47.608;12.190;2023-04-25T07:36:11;2.00;;;1.80;;
13319;SDS011;59599;47.608;12.190;2023-04-25T07:38:37;2.80;;;2.13;;
13319;SDS011;59599;47.608;12.190;2023-04-25T07:41:03;4.90;;;2.20;;
13319;SDS011;59599;47.608;12.190;2023-04-25T07:43:29;4.03;;;2.27;;
13319;SDS011;59599;47.608;12.190;2023-04-25T07:45:55;2.97;;;2.07;;
13319;SDS011;59599;47.608;12.190;2023-04-25T07:48:21;2.27;;;1.90;;
13319;SDS011;59599;47.608;12.190;2023-04-25T07:50:47;3.63;;;2.23;;
13319;SDS011;59599;47.608;12.190;2023-04-25T07:53:13;4.83;;;2.43;;
13319;SDS011;59599;47.608;12.190;2023-04-25T07:55:39;6.10;;;2.70;;
13319;SDS011;59599;47.608;12.190;2023-04-25T07:58:07;5.50;;;2.43;;
13319;SDS011;59599;47.608;12.190;2023-04-25T08:00:34;3.43;;;2.13;;
13319;SDS011;59599;47.608;12.190;2023-04-25T08:03:00;2.07;;;1.87;;
13319;SDS011;59599;47.608;12.190;2023-04-25T08:05:26;4.90;;;1.90;;
13319;SDS011;59599;47.608;12.190;2023-04-25T08:07:51;1.97;;;1.77;;
13319;SDS011;59599;47.608;12.190;2023-04-25T08:10:17;5.60;;;2.53;;
13319;SDS011;59599;47.608;12.190;2023-04-25T08:12:43;2.53;;;1.80;;
13319;SDS011;59599;47.608;12.190;2023-04-25T08:15:09;2.63;;;2.00;;
13319;SDS011;59599;47.608;12.190;2023-04-25T08:17:35;3.83;;;1.83;;
13319;SDS011;59599;47.608;12.190;2023-04-25T08:20:01;3.00;;;2.10;;
13319;SDS011;59599;47.608;12.190;2023-04-25T08:22:30;5.00;;;1.90;;
13319;SDS011;59599;47.608;12.190;2023-04-25T08:24:56;2.23;;;2.00;;
13319;SDS011;59599;47.608;12.190;2023-04-25T08:27:22;3.83;;;2.23;;
13319;SDS011;59599;47.608;12.190;2023-04-25T08:29:48;4.07;;;2.00;;
13319;SDS011;59599;47.608;12.190;2023-04-25T08:32:14;5.83;;;5.00;;
13319;SDS011;59599;47.608;12.190;2023-04-25T08:34:39;4.63;;;2.57;;
13319;SDS011;59599;47.608;12.190;2023-04-25T08:37:07;2.83;;;1.97;;
13319;SDS011;59599;47.608;12.190;2023-04-25T08:39:33;6.70;;;2.20;;
13319;SDS011;59599;47.608;12.190;2023-04-25T08:41:58;3.60;;;2.00;;
13319;SDS011;59599;47.608;12.190;2023-04-25T08:44:26;3.10;;;1.90;;
13319;SDS011;59599;47.608;12.190;2023-04-25T08:46:52;4.50;;;1.93;;
13319;SDS011;59599;47.608;12.190;2023-04-25T08:49:18;2.10;;;1.70;;
13319;SDS011;59599;47.608;12.190;2023-04-25T08:51:45;2.47;;;1.63;;
13319;SDS011;59599;47.608;12.190;2023-04-25T08:54:12;3.10;;;1.80;;
13319;SDS011;59599;47.608;12.190;2023-04-25T08:56:45;3.80;;;1.60;;
13319;SDS011;59599;47.608;12.190;2023-04-25T08:59:12;2.97;;;1.50;;
13319;SDS011;59599;47.608;12.190;2023-04-25T09:01:38;2.57;;;1.50;;
13319;SDS011;59599;47.608;12.190;2023-04-25T09:04:05;2.37;;;1.50;;
13319;SDS011;59599;47.608;12.190;2023-04-25T09:06:31;3.93;;;1.57;;
13319;SDS011;59599;47.608;12.190;2023-04-25T09:09:05;3.00;;;1.50;;
13319;SDS011;59599;47.608;12.190;2023-04-25T09:11:32;3.57;;;1.60;;
13319;SDS011;59599;47.608;12.190;2023-04-25T09:14:14;3.07;;;1.37;;
13319;SDS011;59599;47.608;12.190;2023-04-25T09:19:31;1.93;;;1.33;;
13319;SDS011;59599;47.608;12.190;2023-04-25T09:22:00;2.80;;;1.40;;
13319;SDS011;59599;47.608;12.190;2023-04-25T09:24:34;4.33;;;1.70;;
13319;SDS011;59599;47.608;12.190;2023-04-25T09:27:05;4.97;;;1.50;;
13319;SDS011;59599;47.608;12.190;2023-04-25T09:29:36;1.83;;;1.30;;
13319;SDS011;59599;47.608;12.190;2023-04-25T09:34:49;3.70;;;1.63;;
13319;SDS011;59599;47.608;12.190;2023-04-25T09:37:20;5.07;;;1.90;;
13319;SDS011;59599;47.608;12.190;2023-04-25T09:39:48;2.87;;;1.33;;
13319;SDS011;59599;47.608;12.190;2023-04-25T09:42:15;2.03;;;1.40;;
13319;SDS011;59599;47.608;12.190;2023-04-25T09:44:42;3.20;;;1.70;;
13319;SDS011;59599;47.608;12.190;2023-04-25T09:47:10;2.87;;;1.23;;
13319;SDS011;59599;47.608;12.190;2023-04-25T09:49:42;2.40;;;1.40;;
13319;SDS011;59599;47.608;12.190;2023-04-25T09:52:09;2.87;;;1.50;;
13319;SDS011;59599;47.608;12.190;2023-04-25T09:54:38;3.73;;;1.37;;
13319;SDS011;59599;47.608;12.190;2023-04-25T09:57:09;3.93;;;1.23;;
13319;SDS011;59599;47.608;12.190;2023-04-25T09:59:44;4.00;;;1.73;;
13319;SDS011;59599;47.608;12.190;2023-04-25T10:02:20;1.80;;;1.20;;
13319;SDS011;59599;47.608;12.190;2023-04-25T10:04:50;2.07;;;1.30;;
13319;SDS011;59599;47.608;12.190;2023-04-25T10:07:20;4.03;;;1.20;;
13319;SDS011;59599;47.608;12.190;2023-04-25T10:09:50;4.67;;;1.20;;
13319;SDS011;59599;47.608;12.190;2023-04-25T10:12:20;1.70;;;1.13;;
13319;SDS011;59599;47.608;12.190;2023-04-25T10:14:47;1.73;;;1.30;;
13319;SDS011;59599;47.608;12.190;2023-04-25T10:17:13;3.83;;;1.30;;
13319;SDS011;59599;47.608;12.190;2023-04-25T10:19:39;1.73;;;1.10;;
13319;SDS011;59599;47.608;12.190;2023-04-25T10:22:08;2.33;;;1.23;;
13319;SDS011;59599;47.608;12.190;2023-04-25T10:24:39;1.77;;;1.40;;
13319;SDS011;59599;47.608;12.190;2023-04-25T10:27:06;2.40;;;1.37;;
13319;SDS011;59599;47.608;12.190;2023-04-25T10:29:33;4.47;;;1.63;;
13319;SDS011;59599;47.608;12.190;2023-04-25T10:31:59;3.27;;;1.23;;
13319;SDS011;59599;47.608;12.190;2023-04-25T10:34:38;2.73;;;1.17;;
13319;SDS011;59599;47.608;12.190;2023-04-25T10:37:08;2.57;;;1.30;;
13319;SDS011;59599;47.608;12.190;2023-04-25T10:39:35;2.47;;;1.30;;
13319;SDS011;59599;47.608;12.190;2023-04-25T10:42:01;5.93;;;1.60;;
13319;SDS011;59599;47.608;12.190;2023-04-25T10:44:28;2.73;;;1.50;;
13319;SDS011;59599;47.608;12.190;2023-04-25T10:46:55;6.07;;;1.57;;
13319;SDS011;59599;47.608;12.190;2023-04-25T10:49:32;4.40;;;1.50;;
13319;SDS011;59599;47.608;12.190;2023-04-25T10:52:24;2.57;;;1.20;;
13319;SDS011;59599;47.608;12.190;2023-04-25T10:54:52;2.87;;;1.37;;
13319;SDS011;59599;47.608;12.190;2023-04-25T10:57:29;4.33;;;1.40;;
13319;SDS011;59599;47.608;12.190;2023-04-25T10:59:59;1.87;;;1.20;;
13319;SDS011;59599;47.608;12.190;2023-04-25T11:02:53;3.73;;;1.33;;
13319;SDS011;59599;47.608;12.190;2023-04-25T11:07:57;3.50;;;1.47;;
13319;SDS011;59599;47.608;12.190;2023-04-25T11:10:27;2.00;;;1.17;;
13319;SDS011;59599;47.608;12.190;2023-04-25T11:12:57;2.20;;;1.47;;
13319;SDS011;59599;47.608;12.190;2023-04-25T11:15:23;5.60;;;1.47;;
13319;SDS011;59599;47.608;12.190;2023-04-25T11:17:53;3.40;;;1.43;;
13319;SDS011;59599;47.608;12.190;2023-04-25T11:20:19;3.37;;;1.40;;
13319;SDS011;59599;47.608;12.190;2023-04-25T11:22:45;1.43;;;0.97;;
13319;SDS011;59599;47.608;12.190;2023-04-25T11:25:12;1.50;;;1.10;;
13319;SDS011;59599;47.608;12.190;2023-04-25T11:27:49;1.90;;;1.47;;
13319;SDS011;59599;47.608;12.190;2023-04-25T11:30:19;1.90;;;1.10;;
13319;SDS011;59599;47.608;12.190;2023-04-25T11:32:45;3.43;;;1.60;;
13319;SDS011;59599;47.608;12.190;2023-04-25T11:35:12;2.60;;;1.30;;
13319;SDS011;59599;47.608;12.190;2023-04-25T11:37:41;4.83;;;2.20;;
13319;SDS011;59599;47.608;12.190;2023-04-25T11:40:08;2.10;;;1.57;;
13319;SDS011;59599;47.608;12.190;2023-04-25T11:42:36;4.53;;;1.10;;
13319;SDS011;59599;47.608;12.190;2023-04-25T11:45:08;2.97;;;1.27;;
13319;SDS011;59599;47.608;12.190;2023-04-25T11:47:34;3.40;;;1.17;;
13319;SDS011;59599;47.608;12.190;2023-04-25T11:50:03;1.93;;;1.40;;
13319;SDS011;59599;47.608;12.190;2023-04-25T11:52:40;2.97;;;1.17;;
13319;SDS011;59599;47.608;12.190;2023-04-25T11:55:12;1.83;;;1.00;;
13319;SDS011;59599;47.608;12.190;2023-04-25T11:57:39;1.70;;;1.03;;
13319;SDS011;59599;47.608;12.190;2023-04-25T12:00:12;3.30;;;0.97;;
13319;SDS011;59599;47.608;12.190;2023-04-25T12:02:52;3.83;;;1.17;;
13319;SDS011;59599;47.608;12.190;2023-04-25T12:05:19;1.77;;;1.07;;
13319;SDS011;59599;47.608;12.190;2023-04-25T12:07:45;3.93;;;1.03;;
13319;SDS011;59599;47.608;12.190;2023-04-25T12:10:12;3.10;;;1.13;;
13319;SDS011;59599;47.608;12.190;2023-04-25T12:12:44;3.00;;;0.80;;
13319;SDS011;59599;47.608;12.190;2023-04-25T12:17:42;1.23;;;0.80;;
13319;SDS011;59599;47.608;12.190;2023-04-25T12:20:15;2.23;;;0.90;;
13319;SDS011;59599;47.608;12.190;2023-04-25T12:22:42;2.07;;;0.90;;
13319;SDS011;59599;47.608;12.190;2023-04-25T12:25:12;1.20;;;0.87;;
13319;SDS011;59599;47.608;12.190;2023-04-25T12:27:39;2.67;;;0.77;;
13319;SDS011;59599;47.608;12.190;2023-04-25T12:30:07;1.10;;;0.90;;
13319;SDS011;59599;47.608;12.190;2023-04-25T12:32:33;1.07;;;0.97;;
13319;SDS011;59599;47.608;12.190;2023-04-25T12:34:59;0.80;;;0.80;;
13319;SDS011;59599;47.608;12.190;2023-04-25T12:37:24;1.80;;;0.90;;
13319;SDS011;59599;47.608;12.190;2023-04-25T12:39:50;0.90;;;0.87;;
13319;SDS011;59599;47.608;12.190;2023-04-25T12:42:16;1.27;;;0.63;;
13319;SDS011;59599;47.608;12.190;2023-04-25T12:44:42;1.03;;;0.70;;
13319;SDS011;59599;47.608;12.190;2023-04-25T12:47:08;0.70;;;0.50;;
13319;SDS011;59599;47.608;12.190;2023-04-25T12:49:33;1.33;;;0.50;;
13319;SDS011;59599;47.608;12.190;2023-04-25T12:51:59;0.70;;;0.60;;
13319;SDS011;59599;47.608;12.190;2023-04-25T12:54:25;0.73;;;0.57;;
13319;SDS011;59599;47.608;12.190;2023-04-25T12:56:50;1.43;;;0.90;;
13319;SDS011;59599;47.608;12.190;2023-04-25T12:59:17;1.00;;;0.90;;
13319;SDS011;59599;47.608;12.190;2023-04-25T13:01:43;0.60;;;0.60;;
13319;SDS011;59599;47.608;12.190;2023-04-25T13:04:10;1.80;;;0.77;;
13319;SDS011;59599;47.608;12.190;2023-04-25T13:06:35;1.60;;;0.80;;
13319;SDS011;59599;47.608;12.190;2023-04-25T13:09:01;0.40;;;0.40;;
13319;SDS011;59599;47.608;12.190;2023-04-25T13:11:28;1.03;;;0.43;;
13319;SDS011;59599;47.608;12.190;2023-04-25T13:13:53;0.47;;;0.47;;
13319;SDS011;59599;47.608;12.190;2023-04-25T13:16:19;0.33;;;0.33;;
13319;SDS011;59599;47.608;12.190;2023-04-25T13:18:48;0.40;;;0.40;;
13319;SDS011;59599;47.608;12.190;2023-04-25T13:21:13;0.47;;;0.47;;
13319;SDS011;59599;47.608;12.190;2023-04-25T13:23:39;0.90;;;0.50;;
13319;SDS011;59599;47.608;12.190;2023-04-25T13:26:07;0.43;;;0.40;;
13319;SDS011;59599;47.608;12.190;2023-04-25T13:28:33;0.40;;;0.40;;
13319;SDS011;59599;47.608;12.190;2023-04-25T13:30:59;1.63;;;0.67;;
13319;SDS011;59599;47.608;12.190;2023-04-25T13:33:24;1.20;;;0.70;;
13319;SDS011;59599;47.608;12.190;2023-04-25T13:35:50;1.30;;;0.50;;
13319;SDS011;59599;47.608;12.190;2023-04-25T13:38:21;1.23;;;0.40;;
13319;SDS011;59599;47.608;12.190;2023-04-25T13:40:48;0.50;;;0.50;;
13319;SDS011;59599;47.608;12.190;2023-04-25T13:43:13;0.97;;;0.77;;
13319;SDS011;59599;47.608;12.190;2023-04-25T13:45:39;0.80;;;0.80;;
13319;SDS011;59599;47.608;12.190;2023-04-25T13:48:05;0.70;;;0.70;;
13319;SDS011;59599;47.608;12.190;2023-04-25T13:50:30;1.63;;;0.90;;
13319;SDS011;59599;47.608;12.190;2023-04-25T13:52:56;1.70;;;1.37;;
13319;SDS011;59599;47.608;12.190;2023-04-25T13:55:22;0.93;;;0.90;;
13319;SDS011;59599;47.608;12.190;2023-04-25T13:57:48;2.17;;;0.80;;
13319;SDS011;59599;47.608;12.190;2023-04-25T14:00:13;1.40;;;0.90;;
13319;SDS011;59599;47.608;12.190;2023-04-25T14:02:39;2.43;;;1.10;;
13319;SDS011;59599;47.608;12.190;2023-04-25T14:05:05;1.23;;;0.97;;
13319;SDS011;59599;47.608;12.190;2023-04-25T14:07:32;2.63;;;0.90;;
13319;SDS011;59599;47.608;12.190;2023-04-25T14:09:59;2.07;;;0.90;;
13319;SDS011;59599;47.608;12.190;2023-04-25T14:12:25;0.57;;;0.57;;
13319;SDS011;59599;47.608;12.190;2023-04-25T14:14:51;1.70;;;0.30;;
13319;SDS011;59599;47.608;12.190;2023-04-25T14:17:18;0.40;;;0.40;;
13319;SDS011;59599;47.608;12.190;2023-04-25T14:19:44;1.20;;;0.90;;
13319;SDS011;59599;47.608;12.190;2023-04-25T14:22:12;2.00;;;0.67;;
13319;SDS011;59599;47.608;12.190;2023-04-25T14:24:38;0.87;;;0.70;;
13319;SDS011;59599;47.608;12.190;2023-04-25T14:27:04;1.50;;;1.20;;
13319;SDS011;59599;47.608;12.190;2023-04-25T14:29:30;5.60;;;1.20;;
13319;SDS011;59599;47.608;12.190;2023-04-25T14:31:56;1.63;;;1.13;;
13319;SDS011;59599;47.608;12.190;2023-04-25T14:34:22;3.17;;;1.00;;
13319;SDS011;59599;47.608;12.190;2023-04-25T14:36:49;1.10;;;0.60;;
13319;SDS011;59599;47.608;12.190;2023-04-25T14:39:15;1.17;;;0.63;;
13319;SDS011;59599;47.608;12.190;2023-04-25T14:41:41;1.03;;;0.97;;
13319;SDS011;59599;47.608;12.190;2023-04-25T14:44:07;1.00;;;0.90;;
13319;SDS011;59599;47.608;12.190;2023-04-25T14:46:33;1.10;;;1.00;;
13319;SDS011;59599;47.608;12.190;2023-04-25T14:48:59;1.40;;;1.10;;
13319;SDS011;59599;47.608;12.190;2023-04-25T14:51:25;1.60;;;1.30;;
13319;SDS011;59599;47.608;12.190;2023-04-25T14:53:51;1.43;;;0.93;;
13319;SDS011;59599;47.608;12.190;2023-04-25T14:56:17;1.17;;;1.03;;
13319;SDS011;59599;47.608;12.190;2023-04-25T14:58:43;2.77;;;1.63;;
13319;SDS011;59599;47.608;12.190;2023-04-25T15:01:10;3.00;;;2.43;;
13319;SDS011;59599;47.608;12.190;2023-04-25T15:03:36;2.67;;;2.10;;
13319;SDS011;59599;47.608;12.190;2023-04-25T15:06:02;2.23;;;1.50;;
13319;SDS011;59599;47.608;12.190;2023-04-25T15:08:28;1.73;;;0.70;;
13319;SDS011;59599;47.608;12.190;2023-04-25T15:10:53;0.63;;;0.63;;
13319;SDS011;59599;47.608;12.190;2023-04-25T15:13:19;1.27;;;0.80;;
13319;SDS011;59599;47.608;12.190;2023-04-25T15:15:45;1.93;;;1.00;;
13319;SDS011;59599;47.608;12.190;2023-04-25T15:18:15;2.17;;;1.50;;
13319;SDS011;59599;47.608;12.190;2023-04-25T15:20:42;0.90;;;0.90;;
13319;SDS011;59599;47.608;12.190;2023-04-25T15:23:08;1.33;;;1.00;;
13319;SDS011;59599;47.608;12.190;2023-04-25T15:25:33;0.80;;;0.80;;
13319;SDS011;59599;47.608;12.190;2023-04-25T15:27:59;0.67;;;0.60;;
13319;SDS011;59599;47.608;12.190;2023-04-25T15:30:25;0.80;;;0.60;;
13319;SDS011;59599;47.608;12.190;2023-04-25T15:32:51;0.90;;;0.73;;
13319;SDS011;59599;47.608;12.190;2023-04-25T15:35:16;0.83;;;0.70;;
13319;SDS011;59599;47.608;12.190;2023-04-25T15:37:42;0.60;;;0.60;;
13319;SDS011;59599;47.608;12.190;2023-04-25T15:40:09;0.47;;;0.47;;
13319;SDS011;59599;47.608;12.190;2023-04-25T15:42:47;0.50;;;0.47;;
13319;SDS011;59599;47.608;12.190;2023-04-25T15:45:16;0.27;;;0.27;;
13319;SDS011;59599;47.608;12.190;2023-04-25T15:47:44;0.50;;;0.50;;
13319;SDS011;59599;47.608;12.190;2023-04-25T15:50:10;0.90;;;0.60;;
13319;SDS011;59599;47.608;12.190;2023-04-25T15:52:37;4.03;;;0.87;;
13319;SDS011;59599;47.608;12.190;2023-04-25T15:55:03;1.13;;;0.70;;
13319;SDS011;59599;47.608;12.190;2023-04-25T15:57:31;1.10;;;0.80;;
13319;SDS011;59599;47.608;12.190;2023-04-25T15:59:57;0.77;;;0.77;;
13319;SDS011;59599;47.608;12.190;2023-04-25T16:02:23;1.63;;;0.70;;
13319;SDS011;59599;47.608;12.190;2023-04-25T16:04:49;0.90;;;0.70;;
13319;SDS011;59599;47.608;12.190;2023-04-25T16:07:15;0.93;;;0.70;;
13319;SDS011;59599;47.608;12.190;2023-04-25T16:09:41;1.17;;;0.90;;
13319;SDS011;59599;47.608;12.190;2023-04-25T16:12:07;1.27;;;1.00;;
13319;SDS011;59599;47.608;12.190;2023-04-25T16:14:34;2.07;;;0.90;;
13319;SDS011;59599;47.608;12.190;2023-04-25T16:17:00;0.63;;;0.60;;
13319;SDS011;59599;47.608;12.190;2023-04-25T16:19:26;0.60;;;0.60;;
13319;SDS011;59599;47.608;12.190;2023-04-25T16:21:52;2.23;;;0.90;;
13319;SDS011;59599;47.608;12.190;2023-04-25T16:24:18;0.53;;;0.50;;
13319;SDS011;59599;47.608;12.190;2023-04-25T16:26:43;1.13;;;0.80;;
13319;SDS011;59599;47.608;12.190;2023-04-25T16:29:09;1.63;;;0.87;;
13319;SDS011;59599;47.608;12.190;2023-04-25T16:31:36;0.60;;;0.60;;
13319;SDS011;59599;47.608;12.190;2023-04-25T16:34:02;0.37;;;0.37;;
13319;SDS011;59599;47.608;12.190;2023-04-25T16:36:29;0.93;;;0.60;;
13319;SDS011;59599;47.608;12.190;2023-04-25T16:38:57;0.67;;;0.67;;
13319;SDS011;59599;47.608;12.190;2023-04-25T16:41:25;0.80;;;0.70;;
13319;SDS011;59599;47.608;12.190;2023-04-25T16:43:51;1.13;;;0.97;;
13319;SDS011;59599;47.608;12.190;2023-04-25T16:46:17;1.07;;;1.00;;
13319;SDS011;59599;47.608;12.190;2023-04-25T16:48:43;1.23;;;1.00;;
13319;SDS011;59599;47.608;12.190;2023-04-25T16:51:09;1.27;;;1.10;;
13319;SDS011;59599;47.608;12.190;2023-04-25T16:53:35;0.80;;;0.73;;
13319;SDS011;59599;47.608;12.190;2023-04-25T16:56:01;2.13;;;0.87;;
13319;SDS011;59599;47.608;12.190;2023-04-25T16:58:27;1.27;;;1.17;;
13319;SDS011;59599;47.608;12.190;2023-04-25T17:00:53;5.90;;;1.30;;
13319;SDS011;59599;47.608;12.190;2023-04-25T17:03:19;2.33;;;1.00;;
13319;SDS011;59599;47.608;12.190;2023-04-25T17:05:47;1.10;;;1.00;;
13319;SDS011;59599;47.608;12.190;2023-04-25T17:08:14;0.77;;;0.77;;
13319;SDS011;59599;47.608;12.190;2023-04-25T17:10:39;1.53;;;0.90;;
13319;SDS011;59599;47.608;12.190;2023-04-25T17:13:05;1.37;;;1.00;;
13319;SDS011;59599;47.608;12.190;2023-04-25T17:15:31;0.70;;;0.70;;
13319;SDS011;59599;47.608;12.190;2023-04-25T17:17:57;0.70;;;0.70;;
13319;SDS011;59599;47.608;12.190;2023-04-25T17:20:24;0.80;;;0.80;;
13319;SDS011;59599;47.608;12.190;2023-04-25T17:22:50;0.80;;;0.70;;
13319;SDS011;59599;47.608;12.190;2023-04-25T17:25:16;1.33;;;0.70;;
13319;SDS011;59599;47.608;12.190;2023-04-25T17:27:42;0.80;;;0.80;;
13319;SDS011;59599;47.608;12.190;2023-04-25T17:30:08;0.63;;;0.63;;
13319;SDS011;59599;47.608;12.190;2023-04-25T17:32:33;0.70;;;0.70;;
13319;SDS011;59599;47.608;12.190;2023-04-25T17:34:59;1.17;;;0.80;;
13319;SDS011;59599;47.608;12.190;2023-04-25T17:37:25;4.67;;;2.10;;
13319;SDS011;59599;47.608;12.190;2023-04-25T17:39:52;4.00;;;2.17;;
13319;SDS011;59599;47.608;12.190;2023-04-25T17:42:18;3.13;;;1.70;;
13319;SDS011;59599;47.608;12.190;2023-04-25T17:44:44;3.73;;;2.37;;
13319;SDS011;59599;47.608;12.190;2023-04-25T17:47:10;4.93;;;3.10;;
13319;SDS011;59599;47.608;12.190;2023-04-25T17:49:36;2.10;;;1.73;;
13319;SDS011;59599;47.608;12.190;2023-04-25T17:52:01;0.90;;;0.90;;
13319;SDS011;59599;47.608;12.190;2023-04-25T17:54:27;1.33;;;1.23;;
13319;SDS011;59599;47.608;12.190;2023-04-25T17:56:53;1.27;;;0.97;;
13319;SDS011;59599;47.608;12.190;2023-04-25T17:59:19;2.80;;;1.20;;
13319;SDS011;59599;47.608;12.190;2023-04-25T18:01:45;1.10;;;1.00;;
13319;SDS011;59599;47.608;12.190;2023-04-25T18:04:11;1.30;;;1.20;;
13319;SDS011;59599;47.608;12.190;2023-04-25T18:06:38;1.67;;;1.20;;
13319;SDS011;59599;47.608;12.190;2023-04-25T18:09:04;3.80;;;1.90;;
13319;SDS011;59599;47.608;12.190;2023-04-25T18:11:43;1.80;;;1.60;;
13319;SDS011;59599;47.608;12.190;2023-04-25T18:14:09;1.70;;;1.60;;
13319;SDS011;59599;47.608;12.190;2023-04-25T18:16:44;2.03;;;1.77;;
13319;SDS011;59599;47.608;12.190;2023-04-25T18:19:10;3.83;;;1.80;;
13319;SDS011;59599;47.608;12.190;2023-04-25T18:21:40;2.40;;;1.90;;
13319;SDS011;59599;47.608;12.190;2023-04-25T18:24:07;2.03;;;1.57;;
13319;SDS011;59599;47.608;12.190;2023-04-25T18:26:34;2.90;;;1.67;;
13319;SDS011;59599;47.608;12.190;2023-04-25T18:29:00;1.50;;;1.40;;
13319;SDS011;59599;47.608;12.190;2023-04-25T18:31:26;1.70;;;1.60;;
13319;SDS011;59599;47.608;12.190;2023-04-25T18:33:53;2.60;;;1.87;;
13319;SDS011;59599;47.608;12.190;2023-04-25T18:36:19;3.23;;;2.10;;
13319;SDS011;59599;47.608;12.190;2023-04-25T18:38:45;5.10;;;3.90;;
13319;SDS011;59599;47.608;12.190;2023-04-25T18:41:14;10.60;;;6.40;;
13319;SDS011;59599;47.608;12.190;2023-04-25T18:43:40;2.63;;;1.90;;